sensor_id;sensor_type;location;lat;lon;timestamp;pressure;altitude;pressure_sealevel;temperature;humidity
35878;BME280;21982;49.804;24.072;2023-02-12T00:00:04;97894.94;;;2.71;75.11
35878;BME280;21982;49.804;24.072;2023-02-12T00:02:30;97899.81;;;2.76;75.01
35878;BME280;21982;49.804;24.072;2023-02-12T00:04:55;97780.59;;;2.09;74.83
35878;BME280;21982;49.804;24.072;2023-02-12T00:07:20;97889.84;;;2.69;75.06
35878;BME280;21982;49.804;24.072;2023-02-12T00:09:46;97826.75;;;2.31;74.91
35878;BME280;21982;49.804;24.072;2023-02-12T00:12:11;97765.81;;;1.98;74.86
35878;BME280;21982;49.804;24.072;2023-02-12T00:14:36;97906.63;;;2.88;74.97
35878;BME280;21982;49.804;24.072;2023-02-12T00:17:02;97915.06;;;2.91;74.95
35878;BME280;21982;49.804;24.072;2023-02-12T00:19:28;97680.91;;;1.29;75.19
35878;BME280;21982;49.804;24.072;2023-02-12T00:21:54;97527.88;;;0.53;74.79
35878;BME280;21982;49.804;24.072;2023-02-12T00:24:19;97679.78;;;1.54;75.08
35878;BME280;21982;49.804;24.072;2023-02-12T00:26:45;97780.59;;;2.09;74.74
35878;BME280;21982;49.804;24.072;2023-02-12T00:29:12;97915.13;;;3.01;75.62
35878;BME280;21982;49.804;24.072;2023-02-12T00:31:38;97841.38;;;2.54;75.40
35878;BME280;21982;49.804;24.072;2023-02-12T00:34:03;97790.69;;;2.14;74.65
35878;BME280;21982;49.804;24.072;2023-02-12T00:36:30;97770.78;;;2.01;74.97
35878;BME280;21982;49.804;24.072;2023-02-12T00:38:56;97937.59;;;3.03;75.88
35878;BME280;21982;49.804;24.072;2023-02-12T00:41:22;97640.13;;;1.28;74.75
35878;BME280;21982;49.804;24.072;2023-02-12T00:43:48;97940.09;;;3.05;75.57
35878;BME280;21982;49.804;24.072;2023-02-12T00:46:14;97888.75;;;2.72;75.54
35878;BME280;21982;49.804;24.072;2023-02-12T00:48:39;97777.69;;;2.03;75.53
35878;BME280;21982;49.804;24.072;2023-02-12T00:51:05;97942.22;;;3.11;75.46
35878;BME280;21982;49.804;24.072;2023-02-12T00:53:34;97561.38;;;0.80;74.99
35878;BME280;21982;49.804;24.072;2023-02-12T00:56:10;97240.66;;;-1.12;74.83
35878;BME280;21982;49.804;24.072;2023-02-12T00:58:36;97947.63;;;3.19;74.95
35878;BME280;21982;49.804;24.072;2023-02-12T01:01:01;97824.53;;;2.47;75.20
35878;BME280;21982;49.804;24.072;2023-02-12T01:03:27;97883.78;;;2.90;74.99
35878;BME280;21982;49.804;24.072;2023-02-12T01:05:52;97847.53;;;2.64;75.41
35878;BME280;21982;49.804;24.072;2023-02-12T01:08:18;97948.78;;;3.26;75.12
35878;BME280;21982;49.804;24.072;2023-02-12T01:10:43;97956.66;;;3.26;75.29
35878;BME280;21982;49.804;24.072;2023-02-12T01:13:14;97860.94;;;2.39;75.33
35878;BME280;21982;49.804;24.072;2023-02-12T01:15:40;97922.03;;;3.02;75.36
35878;BME280;21982;49.804;24.072;2023-02-12T01:18:06;97972.69;;;3.33;75.15
35878;BME280;21982;49.804;24.072;2023-02-12T01:20:31;97924.41;;;3.05;74.81
35878;BME280;21982;49.804;24.072;2023-02-12T01:22:57;97854.69;;;2.62;75.33
35878;BME280;21982;49.804;24.072;2023-02-12T01:25:22;98001.09;;;3.38;74.97
35878;BME280;21982;49.804;24.072;2023-02-12T01:27:47;97875.94;;;2.69;74.86
35878;BME280;21982;49.804;24.072;2023-02-12T01:30:14;97830.00;;;2.44;75.28
35878;BME280;21982;49.804;24.072;2023-02-12T01:32:40;97831.38;;;2.39;75.05
35878;BME280;21982;49.804;24.072;2023-02-12T01:35:07;97993.81;;;3.41;75.06
35878;BME280;21982;49.804;24.072;2023-02-12T01:37:35;98003.94;;;3.46;75.66
35878;BME280;21982;49.804;24.072;2023-02-12T01:40:01;97808.59;;;2.29;75.48
35878;BME280;21982;49.804;24.072;2023-02-12T01:42:27;97855.66;;;2.50;74.65
35878;BME280;21982;49.804;24.072;2023-02-12T01:47:36;98030.78;;;3.48;74.94
35878;BME280;21982;49.804;24.072;2023-02-12T01:50:02;97720.94;;;1.50;75.46
35878;BME280;21982;49.804;24.072;2023-02-12T01:52:30;98001.09;;;3.38;75.59
35878;BME280;21982;49.804;24.072;2023-02-12T01:54:59;97753.25;;;1.92;75.34
35878;BME280;21982;49.804;24.072;2023-02-12T01:57:27;98044.75;;;3.69;74.77
35878;BME280;21982;49.804;24.072;2023-02-12T01:59:56;98047.00;;;3.74;75.12
35878;BME280;21982;49.804;24.072;2023-02-12T02:02:23;97906.97;;;2.94;75.25
35878;BME280;21982;49.804;24.072;2023-02-12T02:04:52;98029.28;;;3.66;75.23
35878;BME280;21982;49.804;24.072;2023-02-12T02:07:18;97916.81;;;2.70;75.32
35878;BME280;21982;49.804;24.072;2023-02-12T02:09:45;98054.88;;;3.83;75.15
35878;BME280;21982;49.804;24.072;2023-02-12T02:12:10;98067.47;;;3.89;74.55
35878;BME280;21982;49.804;24.072;2023-02-12T02:14:56;98067.22;;;3.92;75.27
35878;BME280;21982;49.804;24.072;2023-02-12T02:29:06;98072.53;;;4.02;74.31
35878;BME280;21982;49.804;24.072;2023-02-12T02:31:46;98087.38;;;3.92;74.13
35878;BME280;21982;49.804;24.072;2023-02-12T02:34:37;98092.34;;;3.95;74.06
35878;BME280;21982;49.804;24.072;2023-02-12T02:37:14;97724.00;;;1.66;73.62
35878;BME280;21982;49.804;24.072;2023-02-12T02:40:09;97883.16;;;2.77;73.52
35878;BME280;21982;49.804;24.072;2023-02-12T02:42:41;97887.28;;;2.79;73.07
35878;BME280;21982;49.804;24.072;2023-02-12T02:45:19;97987.09;;;3.27;73.40
35878;BME280;21982;49.804;24.072;2023-02-12T02:48:02;97998.28;;;3.29;72.73
35878;BME280;21982;49.804;24.072;2023-02-12T02:50:30;98138.94;;;3.91;72.86
35878;BME280;21982;49.804;24.072;2023-02-12T02:53:26;98100.00;;;3.66;72.52
35878;BME280;21982;49.804;24.072;2023-02-12T02:55:55;98141.88;;;3.77;73.44
35878;BME280;21982;49.804;24.072;2023-02-12T02:58:31;98160.91;;;3.79;72.80
35878;BME280;21982;49.804;24.072;2023-02-12T03:01:03;97948.56;;;2.54;72.69
35878;BME280;21982;49.804;24.072;2023-02-12T03:03:50;97992.53;;;2.72;72.69
35878;BME280;21982;49.804;24.072;2023-02-12T03:06:31;98146.28;;;3.77;72.53
35878;BME280;21982;49.804;24.072;2023-02-12T03:09:03;97958.19;;;2.54;72.47
35878;BME280;21982;49.804;24.072;2023-02-12T03:11:32;98133.69;;;3.59;72.70
35878;BME280;21982;49.804;24.072;2023-02-12T03:14:26;98208.81;;;3.59;72.16
35878;BME280;21982;49.804;24.072;2023-02-12T03:17:09;98003.69;;;2.62;72.25
35878;BME280;21982;49.804;24.072;2023-02-12T03:19:44;98025.94;;;2.57;71.71
35878;BME280;21982;49.804;24.072;2023-02-12T03:22:15;98025.56;;;2.61;71.80
35878;BME280;21982;49.804;24.072;2023-02-12T03:24:45;98154.59;;;3.27;72.32
35878;BME280;21982;49.804;24.072;2023-02-12T03:27:19;98067.66;;;2.36;72.23
35878;BME280;21982;49.804;24.072;2023-02-12T03:29:46;98221.47;;;3.43;72.53
35878;BME280;21982;49.804;24.072;2023-02-12T03:35:21;98242.19;;;3.46;71.69
35878;BME280;21982;49.804;24.072;2023-02-12T03:40:32;98081.16;;;2.19;71.62
35878;BME280;21982;49.804;24.072;2023-02-12T03:45:36;98182.13;;;2.77;71.98
35878;BME280;21982;49.804;24.072;2023-02-12T03:53:25;98272.38;;;2.94;72.01
35878;BME280;21982;49.804;24.072;2023-02-12T03:55:55;98239.31;;;2.47;71.71
35878;BME280;21982;49.804;24.072;2023-02-12T03:58:23;98089.75;;;1.51;71.71
35878;BME280;21982;49.804;24.072;2023-02-12T04:00:51;98170.09;;;2.06;72.25
35878;BME280;21982;49.804;24.072;2023-02-12T04:03:16;98304.91;;;2.79;72.02
35878;BME280;21982;49.804;24.072;2023-02-12T04:05:41;98191.84;;;2.07;72.17
35878;BME280;21982;49.804;24.072;2023-02-12T04:08:08;98292.53;;;2.81;72.74
35878;BME280;21982;49.804;24.072;2023-02-12T04:10:50;98307.19;;;2.83;72.07
35878;BME280;21982;49.804;24.072;2023-02-12T04:13:30;98310.84;;;2.81;72.14
35878;BME280;21982;49.804;24.072;2023-02-12T04:19:12;98141.06;;;1.63;71.70
35878;BME280;21982;49.804;24.072;2023-02-12T04:24:35;98161.84;;;1.64;71.89
35878;BME280;21982;49.804;24.072;2023-02-12T04:35:03;98342.94;;;2.72;71.75
35878;BME280;21982;49.804;24.072;2023-02-12T04:37:44;98358.75;;;2.70;71.69
35878;BME280;21982;49.804;24.072;2023-02-12T04:40:16;98212.38;;;1.87;72.08
35878;BME280;21982;49.804;24.072;2023-02-12T04:42:43;98285.03;;;2.30;72.34
35878;BME280;21982;49.804;24.072;2023-02-12T04:45:11;98370.66;;;2.74;72.48
35878;BME280;21982;49.804;24.072;2023-02-12T04:47:38;98362.69;;;2.76;72.02
35878;BME280;21982;49.804;24.072;2023-02-12T04:50:04;98232.06;;;1.80;72.29
35878;BME280;21982;49.804;24.072;2023-02-12T04:52:30;98315.84;;;2.38;72.15
35878;BME280;21982;49.804;24.072;2023-02-12T04:54:55;97922.66;;;-0.15;71.89
35878;BME280;21982;49.804;24.072;2023-02-12T04:57:20;98378.63;;;2.73;72.16
35878;BME280;21982;49.804;24.072;2023-02-12T04:59:46;98300.03;;;2.15;71.87
35878;BME280;21982;49.804;24.072;2023-02-12T05:02:11;98405.25;;;2.54;71.97
35878;BME280;21982;49.804;24.072;2023-02-12T05:04:36;98176.41;;;1.19;71.32
35878;BME280;21982;49.804;24.072;2023-02-12T05:07:02;98410.03;;;2.60;71.44
35878;BME280;21982;49.804;24.072;2023-02-12T05:09:27;98409.09;;;2.61;72.32
35878;BME280;21982;49.804;24.072;2023-02-12T05:11:52;98201.63;;;1.31;72.11
35878;BME280;21982;49.804;24.072;2023-02-12T05:14:18;98428.03;;;2.64;71.60
35878;BME280;21982;49.804;24.072;2023-02-12T05:16:43;98379.72;;;2.33;71.95
35878;BME280;21982;49.804;24.072;2023-02-12T05:19:09;98439.63;;;2.60;71.59
35878;BME280;21982;49.804;24.072;2023-02-12T05:21:36;98355.06;;;2.01;71.95
35878;BME280;21982;49.804;24.072;2023-02-12T05:24:02;98312.44;;;1.64;71.53
35878;BME280;21982;49.804;24.072;2023-02-12T05:26:27;98445.84;;;2.47;71.48
35878;BME280;21982;49.804;24.072;2023-02-12T05:28:52;98324.22;;;1.70;71.60
35878;BME280;21982;49.804;24.072;2023-02-12T05:31:18;98412.28;;;2.17;71.54
35878;BME280;21982;49.804;24.072;2023-02-12T05:33:45;98470.22;;;2.47;71.27
35878;BME280;21982;49.804;24.072;2023-02-12T05:36:14;98447.50;;;2.24;71.06
35878;BME280;21982;49.804;24.072;2023-02-12T05:38:41;98376.72;;;1.90;70.72
35878;BME280;21982;49.804;24.072;2023-02-12T05:41:09;98420.94;;;2.30;70.66
35878;BME280;21982;49.804;24.072;2023-02-12T05:43:35;98489.22;;;2.62;70.73
35878;BME280;21982;49.804;24.072;2023-02-12T05:46:03;98378.84;;;2.09;70.03
35878;BME280;21982;49.804;24.072;2023-02-12T05:48:30;98493.69;;;2.73;70.33
35878;BME280;21982;49.804;24.072;2023-02-12T05:51:10;98501.63;;;2.71;69.90
35878;BME280;21982;49.804;24.072;2023-02-12T05:53:36;98345.22;;;1.68;69.47
35878;BME280;21982;49.804;24.072;2023-02-12T05:56:12;98247.47;;;1.10;69.05
35878;BME280;21982;49.804;24.072;2023-02-12T05:58:37;98498.03;;;2.48;69.50
35878;BME280;21982;49.804;24.072;2023-02-12T06:01:12;98344.28;;;1.44;68.94
35878;BME280;21982;49.804;24.072;2023-02-12T06:03:38;98354.94;;;1.41;69.25
35878;BME280;21982;49.804;24.072;2023-02-12T06:06:04;98543.72;;;2.55;69.18
35878;BME280;21982;49.804;24.072;2023-02-12T06:08:29;98395.03;;;1.65;69.11
35878;BME280;21982;49.804;24.072;2023-02-12T06:10:59;98365.59;;;1.50;69.17
35878;BME280;21982;49.804;24.072;2023-02-12T06:13:24;98486.06;;;2.20;69.35
35878;BME280;21982;49.804;24.072;2023-02-12T06:15:49;98553.38;;;2.42;68.44
35878;BME280;21982;49.804;24.072;2023-02-12T06:18:15;98464.25;;;1.96;68.96
35878;BME280;21982;49.804;24.072;2023-02-12T06:20:40;98432.00;;;1.59;68.72
35878;BME280;21982;49.804;24.072;2023-02-12T06:23:05;98596.31;;;2.51;68.98
35878;BME280;21982;49.804;24.072;2023-02-12T06:25:31;98554.00;;;2.33;68.99
35878;BME280;21982;49.804;24.072;2023-02-12T06:27:56;98569.28;;;2.39;68.73
35878;BME280;21982;49.804;24.072;2023-02-12T06:30:21;98418.31;;;1.43;68.83
35878;BME280;21982;49.804;24.072;2023-02-12T06:32:49;98510.53;;;1.94;68.55
35878;BME280;21982;49.804;24.072;2023-02-12T06:35:15;98514.72;;;1.96;68.46
35878;BME280;21982;49.804;24.072;2023-02-12T06:37:40;98623.19;;;2.65;68.03
35878;BME280;21982;49.804;24.072;2023-02-12T06:40:06;98380.09;;;1.16;68.65
35878;BME280;21982;49.804;24.072;2023-02-12T06:42:31;98613.25;;;2.45;68.57
35878;BME280;21982;49.804;24.072;2023-02-12T06:44:57;98627.06;;;2.47;68.20
35878;BME280;21982;49.804;24.072;2023-02-12T06:47:22;98669.88;;;2.72;68.35
35878;BME280;21982;49.804;24.072;2023-02-12T06:49:48;98401.16;;;1.00;68.30
35878;BME280;21982;49.804;24.072;2023-02-12T06:52:13;98548.38;;;2.01;68.00
35878;BME280;21982;49.804;24.072;2023-02-12T06:54:39;98633.66;;;2.65;68.70
35878;BME280;21982;49.804;24.072;2023-02-12T06:57:04;98681.97;;;2.85;68.11
35878;BME280;21982;49.804;24.072;2023-02-12T06:59:29;98610.44;;;2.48;68.32
35878;BME280;21982;49.804;24.072;2023-02-12T07:01:55;98477.53;;;1.55;67.51
35878;BME280;21982;49.804;24.072;2023-02-12T07:04:20;98716.38;;;2.79;68.07
35878;BME280;21982;49.804;24.072;2023-02-12T07:06:46;98677.72;;;2.72;67.61
35878;BME280;21982;49.804;24.072;2023-02-12T07:09:11;98685.56;;;2.72;67.71
35878;BME280;21982;49.804;24.072;2023-02-12T07:11:36;98601.03;;;2.20;67.37
35878;BME280;21982;49.804;24.072;2023-02-12T07:14:02;98633.06;;;2.37;67.40
35878;BME280;21982;49.804;24.072;2023-02-12T07:16:28;98667.66;;;2.65;67.01
35878;BME280;21982;49.804;24.072;2023-02-12T07:18:53;98524.34;;;1.96;67.33
35878;BME280;21982;49.804;24.072;2023-02-12T07:21:19;98559.84;;;2.24;66.19
35878;BME280;21982;49.804;24.072;2023-02-12T07:23:50;98708.59;;;3.28;66.36
35878;BME280;21982;49.804;24.072;2023-02-12T07:26:15;98709.22;;;3.32;65.84
35878;BME280;21982;49.804;24.072;2023-02-12T07:28:41;98710.56;;;3.38;64.72
35878;BME280;21982;49.804;24.072;2023-02-12T07:31:16;98714.09;;;3.49;64.41
35878;BME280;21982;49.804;24.072;2023-02-12T07:33:42;98702.28;;;3.44;64.96
35878;BME280;21982;49.804;24.072;2023-02-12T07:36:10;98660.50;;;3.42;64.18
35878;BME280;21982;49.804;24.072;2023-02-12T07:38:37;98656.00;;;3.68;64.51
35878;BME280;21982;49.804;24.072;2023-02-12T07:41:20;98695.72;;;4.10;62.75
35878;BME280;21982;49.804;24.072;2023-02-12T07:43:47;98578.72;;;3.39;62.25
35878;BME280;21982;49.804;24.072;2023-02-12T07:46:21;98633.44;;;3.89;61.57
35878;BME280;21982;49.804;24.072;2023-02-12T07:48:49;98696.50;;;4.34;61.66
35878;BME280;21982;49.804;24.072;2023-02-12T07:51:16;98496.91;;;3.00;61.23
35878;BME280;21982;49.804;24.072;2023-02-12T07:53:45;98721.75;;;4.24;61.13
35878;BME280;21982;49.804;24.072;2023-02-12T07:56:13;98712.53;;;4.18;60.26
35878;BME280;21982;49.804;24.072;2023-02-12T07:58:40;98705.28;;;4.22;60.40
35878;BME280;21982;49.804;24.072;2023-02-12T08:03:38;98722.16;;;4.42;59.55
35878;BME280;21982;49.804;24.072;2023-02-12T08:06:18;98713.59;;;4.51;59.53
35878;BME280;21982;49.804;24.072;2023-02-12T08:08:45;98670.97;;;4.25;59.08
35878;BME280;21982;49.804;24.072;2023-02-12T08:11:11;98728.38;;;4.52;58.60
35878;BME280;21982;49.804;24.072;2023-02-12T08:13:37;98728.53;;;4.50;58.34
35878;BME280;21982;49.804;24.072;2023-02-12T08:16:06;98703.53;;;4.33;58.59
35878;BME280;21982;49.804;24.072;2023-02-12T08:18:33;98737.47;;;4.59;58.25
35878;BME280;21982;49.804;24.072;2023-02-12T08:21:04;98645.19;;;4.08;58.04
35878;BME280;21982;49.804;24.072;2023-02-12T08:23:32;98739.78;;;4.75;57.45
35878;BME280;21982;49.804;24.072;2023-02-12T08:26:25;98197.78;;;1.24;57.31
35878;BME280;21982;49.804;24.072;2023-02-12T08:29:02;98752.38;;;4.58;57.95
35878;BME280;21982;49.804;24.072;2023-02-12T08:31:28;98747.22;;;4.46;59.13
35878;BME280;21982;49.804;24.072;2023-02-12T08:33:55;98743.09;;;4.30;57.87
35878;BME280;21982;49.804;24.072;2023-02-12T08:36:29;98751.47;;;4.35;58.03
35878;BME280;21982;49.804;24.072;2023-02-12T08:38:57;98767.66;;;4.29;58.23
35878;BME280;21982;49.804;24.072;2023-02-12T08:41:25;98767.94;;;4.14;58.02
35878;BME280;21982;49.804;24.072;2023-02-12T08:43:53;98779.75;;;3.95;57.88
35878;BME280;21982;49.804;24.072;2023-02-12T08:46:21;98759.75;;;3.58;58.72
35878;BME280;21982;49.804;24.072;2023-02-12T08:48:47;98797.88;;;3.62;58.45
35878;BME280;21982;49.804;24.072;2023-02-12T08:51:17;98801.88;;;3.55;58.34
35878;BME280;21982;49.804;24.072;2023-02-12T08:53:45;98798.59;;;3.64;58.50
35878;BME280;21982;49.804;24.072;2023-02-12T08:56:12;98758.56;;;3.13;57.88
35878;BME280;21982;49.804;24.072;2023-02-12T08:58:38;98816.25;;;3.86;58.49
35878;BME280;21982;49.804;24.072;2023-02-12T09:01:07;98819.16;;;4.07;57.80
35878;BME280;21982;49.804;24.072;2023-02-12T09:03:36;98733.22;;;3.62;57.18
35878;BME280;21982;49.804;24.072;2023-02-12T09:06:03;98829.75;;;4.29;56.55
35878;BME280;21982;49.804;24.072;2023-02-12T09:08:29;98823.09;;;4.60;56.47
35878;BME280;21982;49.804;24.072;2023-02-12T09:10:54;98828.03;;;4.76;55.70
35878;BME280;21982;49.804;24.072;2023-02-12T09:13:20;98833.22;;;4.99;55.24
35878;BME280;21982;49.804;24.072;2023-02-12T09:15:45;98831.75;;;5.19;55.28
35878;BME280;21982;49.804;24.072;2023-02-12T09:18:11;98833.66;;;5.39;54.49
35878;BME280;21982;49.804;24.072;2023-02-12T09:20:39;98770.84;;;5.03;54.35
35878;BME280;21982;49.804;24.072;2023-02-12T09:23:06;98795.44;;;5.35;54.37
35878;BME280;21982;49.804;24.072;2023-02-12T09:25:33;98731.22;;;5.39;53.65
35878;BME280;21982;49.804;24.072;2023-02-12T09:28:03;98717.59;;;5.46;52.88
35878;BME280;21982;49.804;24.072;2023-02-12T09:30:28;98783.34;;;6.11;52.75
35878;BME280;21982;49.804;24.072;2023-02-12T09:32:54;98843.50;;;6.48;52.19
35878;BME280;21982;49.804;24.072;2023-02-12T09:35:20;98704.34;;;5.36;52.54
35878;BME280;21982;49.804;24.072;2023-02-12T09:37:46;98801.41;;;5.71;52.25
35878;BME280;21982;49.804;24.072;2023-02-12T09:40:50;98848.13;;;5.90;53.10
35878;BME280;21982;49.804;24.072;2023-02-12T09:43:30;98854.59;;;5.97;52.68
35878;BME280;21982;49.804;24.072;2023-02-12T09:46:17;98856.25;;;5.98;52.07
35878;BME280;21982;49.804;24.072;2023-02-12T09:49:12;98862.97;;;5.91;52.28
35878;BME280;21982;49.804;24.072;2023-02-12T09:51:42;98722.63;;;5.26;52.49
35878;BME280;21982;49.804;24.072;2023-02-12T09:54:17;98870.94;;;6.23;51.66
35878;BME280;21982;49.804;24.072;2023-02-12T09:56:46;98871.88;;;6.33;51.89
35878;BME280;21982;49.804;24.072;2023-02-12T09:59:38;98839.41;;;6.00;51.12
35878;BME280;21982;49.804;24.072;2023-02-12T10:02:14;98882.44;;;5.88;51.07
35878;BME280;21982;49.804;24.072;2023-02-12T10:04:42;98878.81;;;5.67;51.58
35878;BME280;21982;49.804;24.072;2023-02-12T10:07:17;98870.34;;;5.63;51.66
35878;BME280;21982;49.804;24.072;2023-02-12T10:10:08;98875.25;;;5.68;51.50
35878;BME280;21982;49.804;24.072;2023-02-12T10:12:48;98870.97;;;6.00;51.50
35878;BME280;21982;49.804;24.072;2023-02-12T10:26:49;98874.84;;;5.39;50.87
35878;BME280;21982;49.804;24.072;2023-02-12T10:29:20;98820.00;;;5.01;51.18
35878;BME280;21982;49.804;24.072;2023-02-12T10:31:54;98710.34;;;4.36;51.42
35878;BME280;21982;49.804;24.072;2023-02-12T10:34:24;98881.28;;;5.35;50.88
35878;BME280;21982;49.804;24.072;2023-02-12T10:36:51;98867.09;;;5.37;50.79
35878;BME280;21982;49.804;24.072;2023-02-12T10:39:41;98718.94;;;4.38;50.86
35878;BME280;21982;49.804;24.072;2023-02-12T10:42:16;98821.66;;;5.02;50.73
35878;BME280;21982;49.804;24.072;2023-02-12T10:44:42;98873.31;;;5.36;50.84
35878;BME280;21982;49.804;24.072;2023-02-12T10:47:21;98885.59;;;6.48;51.19
35878;BME280;21982;49.804;24.072;2023-02-12T10:49:54;98888.06;;;8.46;50.17
35878;BME280;21982;49.804;24.072;2023-02-12T10:52:52;98890.97;;;10.33;48.36
35878;BME280;21982;49.804;24.072;2023-02-12T10:55:34;98833.28;;;11.59;46.52
35878;BME280;21982;49.804;24.072;2023-02-12T10:58:02;98893.44;;;13.27;44.07
35878;BME280;21982;49.804;24.072;2023-02-12T11:00:38;98898.78;;;14.15;42.37
35878;BME280;21982;49.804;24.072;2023-02-12T11:05:39;98749.91;;;14.20;39.35
35878;BME280;21982;49.804;24.072;2023-02-12T11:08:05;98834.19;;;15.21;38.80
35878;BME280;21982;49.804;24.072;2023-02-12T11:10:32;98894.91;;;16.38;37.93
35878;BME280;21982;49.804;24.072;2023-02-12T11:13:00;98831.53;;;16.68;36.94
35878;BME280;21982;49.804;24.072;2023-02-12T11:15:34;98889.22;;;17.84;35.98
35878;BME280;21982;49.804;24.072;2023-02-12T11:18:05;98779.31;;;17.77;35.13
35878;BME280;21982;49.804;24.072;2023-02-12T11:20:40;98878.03;;;19.23;34.44
35878;BME280;21982;49.804;24.072;2023-02-12T11:26:03;98895.00;;;20.03;32.66
35878;BME280;21982;49.804;24.072;2023-02-12T11:28:29;98896.00;;;20.15;31.73
35878;BME280;21982;49.804;24.072;2023-02-12T11:31:01;98760.47;;;19.45;31.55
35878;BME280;21982;49.804;24.072;2023-02-12T11:33:34;98777.03;;;19.55;31.32
35878;BME280;21982;49.804;24.072;2023-02-12T11:36:18;98894.34;;;20.21;31.59
35878;BME280;21982;49.804;24.072;2023-02-12T11:38:52;98844.34;;;19.93;31.05
35878;BME280;21982;49.804;24.072;2023-02-12T11:41:28;98835.16;;;20.21;30.57
35878;BME280;21982;49.804;24.072;2023-02-12T11:43:59;98688.47;;;19.80;29.82
35878;BME280;21982;49.804;24.072;2023-02-12T11:46:26;98888.38;;;21.46;28.77
35878;BME280;21982;49.804;24.072;2023-02-12T11:48:54;98800.88;;;21.17;27.94
35878;BME280;21982;49.804;24.072;2023-02-12T11:51:25;98818.66;;;20.93;27.87
35878;BME280;21982;49.804;24.072;2023-02-12T11:53:52;98886.13;;;19.89;28.57
35878;BME280;21982;49.804;24.072;2023-02-12T11:56:19;98730.28;;;18.44;29.19
35878;BME280;21982;49.804;24.072;2023-02-12T11:58:46;98881.69;;;18.83;29.28
35878;BME280;21982;49.804;24.072;2023-02-12T12:01:27;98891.75;;;18.67;29.73
35878;BME280;21982;49.804;24.072;2023-02-12T12:04:04;98886.53;;;19.27;29.00
35878;BME280;21982;49.804;24.072;2023-02-12T12:11:40;98894.00;;;21.06;27.49
35878;BME280;21982;49.804;24.072;2023-02-12T12:17:29;98834.75;;;21.06;27.11
35878;BME280;21982;49.804;24.072;2023-02-12T12:20:26;98763.53;;;20.33;27.55
35878;BME280;21982;49.804;24.072;2023-02-12T12:25:43;98909.38;;;20.48;27.55
35878;BME280;21982;49.804;24.072;2023-02-12T12:28:30;98870.34;;;20.13;28.23
35878;BME280;21982;49.804;24.072;2023-02-12T12:31:09;98890.25;;;19.85;27.97
35878;BME280;21982;49.804;24.072;2023-02-12T12:33:40;98891.69;;;19.41;27.98
35878;BME280;21982;49.804;24.072;2023-02-12T12:47:21;98768.16;;;16.32;29.27
35878;BME280;21982;49.804;24.072;2023-02-12T13:07:29;98883.81;;;17.28;28.30
35878;BME280;21982;49.804;24.072;2023-02-12T13:09:49;98882.59;;;17.09;28.39
35878;BME280;21982;49.804;24.072;2023-02-12T13:15:20;98632.53;;;15.77;27.78
35878;BME280;21982;49.804;24.072;2023-02-12T13:21:10;98862.84;;;16.89;28.32
35878;BME280;21982;49.804;24.072;2023-02-12T13:23:52;98868.78;;;16.69;28.76
35878;BME280;21982;49.804;24.072;2023-02-12T13:26:28;98868.53;;;16.50;28.92
35878;BME280;21982;49.804;24.072;2023-02-12T13:31:54;98810.16;;;16.17;28.84
35878;BME280;21982;49.804;24.072;2023-02-12T13:34:21;98882.28;;;16.32;28.34
35878;BME280;21982;49.804;24.072;2023-02-12T13:36:51;98884.06;;;16.10;28.73
35878;BME280;21982;49.804;24.072;2023-02-12T13:39:36;98887.47;;;16.04;28.69
35878;BME280;21982;49.804;24.072;2023-02-12T13:44:40;98844.97;;;15.27;28.85
35878;BME280;21982;49.804;24.072;2023-02-12T13:49:55;98887.31;;;15.30;29.54
35878;BME280;21982;49.804;24.072;2023-02-12T13:52:30;98892.66;;;14.85;29.81
35878;BME280;21982;49.804;24.072;2023-02-12T13:55:05;98896.88;;;14.32;30.40
35878;BME280;21982;49.804;24.072;2023-02-12T13:57:35;98871.66;;;13.24;30.93
35878;BME280;21982;49.804;24.072;2023-02-12T14:00:00;98871.81;;;12.31;31.89
35878;BME280;21982;49.804;24.072;2023-02-12T14:05:02;98890.31;;;11.81;32.85
35878;BME280;21982;49.804;24.072;2023-02-12T14:07:44;98872.84;;;11.53;33.04
35878;BME280;21982;49.804;24.072;2023-02-12T14:12:48;98918.00;;;11.17;33.35
35878;BME280;21982;49.804;24.072;2023-02-12T14:17:53;98872.50;;;9.77;34.18
35878;BME280;21982;49.804;24.072;2023-02-12T14:27:53;98811.72;;;7.74;36.29
35878;BME280;21982;49.804;24.072;2023-02-12T14:30:46;98829.25;;;7.24;36.45
35878;BME280;21982;49.804;24.072;2023-02-12T14:33:31;98925.09;;;7.32;37.39
35878;BME280;21982;49.804;24.072;2023-02-12T14:36:34;98928.06;;;7.18;37.30
35878;BME280;21982;49.804;24.072;2023-02-12T14:49:49;98553.53;;;3.25;39.71
35878;BME280;21982;49.804;24.072;2023-02-12T14:52:26;98745.81;;;4.64;40.11
35878;BME280;21982;49.804;24.072;2023-02-12T14:54:59;98932.41;;;5.42;40.82
35878;BME280;21982;49.804;24.072;2023-02-12T14:57:37;98884.31;;;4.71;40.80
35878;BME280;21982;49.804;24.072;2023-02-12T15:00:20;98940.22;;;4.85;40.98
35878;BME280;21982;49.804;24.072;2023-02-12T15:05:42;98611.81;;;2.16;42.29
35878;BME280;21982;49.804;24.072;2023-02-12T15:08:34;98896.03;;;3.82;42.46
35878;BME280;21982;49.804;24.072;2023-02-12T15:11:16;98960.91;;;3.91;43.12
35878;BME280;21982;49.804;24.072;2023-02-12T15:16:51;98946.31;;;3.49;43.66
35878;BME280;21982;49.804;24.072;2023-02-12T15:21:55;98622.16;;;1.11;44.62
35878;BME280;21982;49.804;24.072;2023-02-12T15:24:23;98923.13;;;2.78;44.88
35878;BME280;21982;49.804;24.072;2023-02-12T15:26:54;98954.38;;;2.93;45.16
35878;BME280;21982;49.804;24.072;2023-02-12T15:29:24;98333.59;;;-0.94;45.21
35878;BME280;21982;49.804;24.072;2023-02-12T15:31:56;98964.22;;;2.63;45.50
35878;BME280;21982;49.804;24.072;2023-02-12T15:34:25;98953.88;;;2.47;46.09
35878;BME280;21982;49.804;24.072;2023-02-12T15:36:56;98911.22;;;2.06;46.11
35878;BME280;21982;49.804;24.072;2023-02-12T15:39:23;98874.31;;;1.69;47.14
35878;BME280;21982;49.804;24.072;2023-02-12T15:41:49;98722.88;;;0.71;47.08
35878;BME280;21982;49.804;24.072;2023-02-12T15:44:22;98960.56;;;2.10;47.17